Terminal Aerodrome Forecast
Issued by NWS

Home | Current Version | Previous Version | Graphics & Text | Print | Product List | Glossary Off
Versions: 1 2 3 4 5 6 7 8 9 10 11 12 13 14 15 16 17

000
FTUS43 KDDC 261739
TAFHYS
TAF
KHYS 261739Z 2618/2718 VRB06KT P6SM SCT200
     FM270000 19013KT P6SM VCTS SCT050CB BKN200
     FM270700 33015G25KT P6SM VCSH BKN050=

USA.gov is the U.S. government's official web portal to all federal, state and local government web resources and services.